Time;durP1;ratioP1;P1;durP2;ratioP2;P2;SDS_P1;SDS_P2;PMS_P1;PMS_P2;Temp;Humidity;BMP_temperature;BMP_pressure;BME280_temperature;BME280_humidity;BME280_pressure;Samples;Min_cycle;Max_cycle;Signal;HPM_P1;HPM_P2
2021/08/15 00:00:23;;;;;;;11.55;7.15;;;18.10;60.80;;;;;;5068171;28;20502;-73
2021/08/15 00:02:50;;;;;;;12.80;9.23;;;18.20;57.30;;;;;;5068851;28;20035;-74
2021/08/15 00:05:17;;;;;;;14.30;10.40;;;18.30;58.10;;;;;;5068620;28;20047;-73
2021/08/15 00:07:45;;;;;;;8.02;5.80;;;18.40;59.50;;;;;;5066558;28;20029;-74
2021/08/15 00:10:19;;;;;;;16.15;13.32;;;18.40;55.80;;;;;;5068466;28;20016;-70
2021/08/15 00:12:46;;;;;;;9.30;7.82;;;18.50;58.20;;;;;;5067738;28;20037;-73
2021/08/15 00:15:15;;;;;;;9.30;8.32;;;18.60;55.40;;;;;;5068807;28;20384;-73
2021/08/15 00:17:43;;;;;;;20.75;15.98;;;18.70;53.90;;;;;;5070098;28;20013;-71
2021/08/15 00:20:12;;;;;;;14.85;13.25;;;18.90;55.50;;;;;;5068091;28;20025;-71
2021/08/15 00:22:42;;;;;;;11.75;10.55;;;19.00;57.10;;;;;;5068707;28;20012;-72
2021/08/15 00:25:12;;;;;;;15.45;11.73;;;19.10;53.80;;;;;;5069277;28;20031;-71
2021/08/15 00:27:40;;;;;;;8.40;6.72;;;19.20;54.80;;;;;;5068534;28;20066;-71
2021/08/15 00:30:08;;;;;;;14.85;13.45;;;19.30;51.90;;;;;;5067283;28;20040;-74
2021/08/15 00:32:36;;;;;;;13.90;10.90;;;19.30;53.50;;;;;;5068370;28;21216;-70
2021/08/15 00:35:05;;;;;;;7.68;5.60;;;19.40;52.20;;;;;;5069064;28;20161;-73
2021/08/15 00:37:49;;;;;;;5.00;2.60;;;19.60;47.90;;;;;;5068997;28;20498;-66
2021/08/15 00:40:18;;;;;;;11.63;9.48;;;19.70;47.60;;;;;;5069090;28;20033;-71
2021/08/15 00:42:45;;;;;;;12.38;11.18;;;19.90;50.50;;;;;;5067569;28;20017;-72
2021/08/15 00:45:13;;;;;;;9.25;8.35;;;19.90;51.90;;;;;;5068223;28;20028;-71
2021/08/15 00:47:40;;;;;;;10.13;9.10;;;19.90;49.90;;;;;;5068177;28;20024;-71
2021/08/15 00:50:11;;;;;;;10.32;5.70;;;20.00;49.40;;;;;;5069551;28;20035;-69
2021/08/15 00:52:41;;;;;;;7.85;4.93;;;20.20;44.60;;;;;;5068649;28;20123;-72
2021/08/15 00:55:36;;;;;;;11.40;6.15;;;20.30;44.20;;;;;;5074460;28;20020;-73
2021/08/15 00:58:07;;;;;;;7.00;6.30;;;20.50;45.80;;;;;;5070860;28;20032;-69
2021/08/15 01:00:38;;;;;;;15.45;4.07;;;20.50;48.60;;;;;;5069774;28;20017;-72
2021/08/15 01:03:05;;;;;;;5.65;4.88;;;20.60;44.00;;;;;;5069852;28;20039;-69
2021/08/15 01:05:33;;;;;;;4.53;3.72;;;20.70;46.60;;;;;;5072024;28;20455;-70
2021/08/15 01:08:02;;;;;;;3.72;3.15;;;20.90;43.80;;;;;;5071427;28;20069;-68
2021/08/15 01:10:31;;;;;;;3.50;3.20;;;21.00;42.30;;;;;;5080795;28;20081;-69
2021/08/15 01:12:59;;;;;;;4.18;3.40;;;21.20;44.90;;;;;;5096240;28;20036;-69
2021/08/15 01:15:27;;;;;;;7.43;4.10;;;21.10;42.90;;;;;;5096882;28;20471;-68
2021/08/15 01:17:57;;;;;;;9.20;4.82;;;20.90;46.40;;;;;;5096638;28;20394;-73
2021/08/15 01:20:24;;;;;;;5.70;4.45;;;20.60;49.20;;;;;;5096865;28;20095;-71
2021/08/15 01:22:51;;;;;;;7.60;4.35;;;20.50;50.90;;;;;;5096783;28;20031;-74
2021/08/15 01:25:19;;;;;;;4.95;4.13;;;20.60;50.40;;;;;;5096775;28;20024;-70
2021/08/15 01:27:46;;;;;;;5.95;4.32;;;20.60;50.50;;;;;;5096292;28;20028;-75
2021/08/15 01:30:15;;;;;;;4.32;3.92;;;20.70;49.50;;;;;;5096636;28;20040;-73
2021/08/15 01:32:44;;;;;;;5.18;3.42;;;20.80;51.00;;;;;;5096139;28;20466;-71
2021/08/15 01:35:12;;;;;;;5.40;4.05;;;20.70;51.20;;;;;;5096172;28;20020;-71
2021/08/15 01:37:40;;;;;;;6.28;3.13;;;20.90;49.00;;;;;;5095934;28;20119;-71
2021/08/15 01:40:08;;;;;;;4.75;3.35;;;20.90;49.10;;;;;;5096164;28;20777;-71
2021/08/15 01:42:36;;;;;;;6.82;4.18;;;21.10;46.80;;;;;;5095939;28;20040;-72
2021/08/15 01:45:13;;;;;;;4.55;3.33;;;21.20;51.40;;;;;;5096045;28;20381;-75
2021/08/15 01:47:40;;;;;;;5.32;3.67;;;21.20;49.20;;;;;;5095123;28;20432;-74
2021/08/15 01:50:09;;;;;;;5.75;3.50;;;21.30;50.10;;;;;;5095839;28;20494;-72
2021/08/15 01:52:36;;;;;;;3.58;2.80;;;21.30;49.60;;;;;;5096170;28;20040;-72
2021/08/15 01:55:07;;;;;;;8.98;3.13;;;21.40;47.00;;;;;;5095521;28;20543;-73
2021/08/15 01:57:34;;;;;;;6.13;3.65;;;21.40;48.70;;;;;;5095339;28;20029;-71
2021/08/15 02:00:01;;;;;;;7.80;3.45;;;21.50;50.70;;;;;;5097089;28;20024;-71
2021/08/15 02:02:29;;;;;;;11.10;3.40;;;21.60;47.90;;;;;;5096996;28;20158;-70
2021/08/15 02:04:56;;;;;;;4.05;3.38;;;21.60;52.10;;;;;;5094109;28;20055;-69
2021/08/15 02:07:25;;;;;;;6.50;3.35;;;21.70;50.50;;;;;;5095508;28;20032;-72
2021/08/15 02:09:53;;;;;;;4.75;3.00;;;21.80;52.40;;;;;;5093881;28;20028;-73
2021/08/15 02:12:20;;;;;;;8.73;3.08;;;21.80;51.30;;;;;;5094629;28;20052;-70
2021/08/15 02:14:47;;;;;;;6.78;3.65;;;21.90;48.50;;;;;;5094748;28;20028;-64
2021/08/15 02:17:15;;;;;;;13.05;2.60;;;21.90;50.90;;;;;;5094867;28;20045;-69
2021/08/15 02:19:42;;;;;;;5.43;3.10;;;21.90;48.70;;;;;;5094839;28;20086;-68
2021/08/15 02:22:09;;;;;;;12.95;2.63;;;21.80;47.90;;;;;;5094994;28;20024;-69
2021/08/15 02:24:37;;;;;;;5.18;2.83;;;21.90;52.30;;;;;;5095096;28;20030;-68
2021/08/15 02:27:04;;;;;;;3.88;3.30;;;22.00;46.30;;;;;;5093788;28;20073;-69
2021/08/15 02:29:35;;;;;;;6.13;5.28;;;22.00;46.90;;;;;;5068242;28;20502;-71
2021/08/15 02:32:02;;;;;;;4.40;3.58;;;22.00;50.50;;;;;;5073711;28;20454;-68
2021/08/15 02:34:30;;;;;;;7.57;3.88;;;22.00;48.90;;;;;;5072572;28;20020;-70
2021/08/15 02:36:58;;;;;;;6.72;4.03;;;22.10;48.20;;;;;;5073784;28;20028;-70
2021/08/15 02:39:25;;;;;;;5.32;4.60;;;22.20;48.70;;;;;;5073253;28;20024;-70
2021/08/15 02:42:02;;;;;;;6.22;3.92;;;22.20;51.50;;;;;;5074311;28;20020;-68
2021/08/15 02:44:29;;;;;;;5.82;3.50;;;22.30;47.30;;;;;;5071309;28;20356;-67
2021/08/15 02:46:56;;;;;;;4.85;4.35;;;22.40;50.00;;;;;;5072554;28;20214;-71
2021/08/15 02:49:24;;;;;;;4.93;4.40;;;22.50;51.40;;;;;;5072588;28;20020;-68
2021/08/15 02:51:51;;;;;;;7.10;5.68;;;22.50;50.60;;;;;;5073205;28;20020;-72
2021/08/15 02:54:19;;;;;;;2.17;1.38;;;22.60;42.40;;;;;;5073331;28;20029;-70
2021/08/15 02:56:46;;;;;;;8.18;6.28;;;22.70;42.80;;;;;;5069221;28;20032;-72
2021/08/15 02:59:14;;;;;;;1.92;1.20;;;22.70;44.20;;;;;;5072021;28;20091;-70
2021/08/15 03:01:44;;;;;;;1.45;0.90;;;22.70;36.60;;;;;;5071430;28;20020;-64
2021/08/15 03:04:12;;;;;;;3.50;1.38;;;22.60;33.40;;;;;;5072944;28;20032;-70
2021/08/15 03:06:42;;;;;;;4.80;4.40;;;22.50;34.20;;;;;;5068169;28;20017;-67
2021/08/15 03:09:09;;;;;;;3.25;2.95;;;22.70;38.70;;;;;;5072167;28;20020;-69
2021/08/15 03:11:37;;;;;;;6.60;1.50;;;22.70;37.90;;;;;;5068388;28;20040;-67
2021/08/15 03:14:04;;;;;;;5.53;5.00;;;23.20;38.90;;;;;;5072709;28;20063;-72
2021/08/15 03:16:31;;;;;;;6.80;5.07;;;22.70;36.20;;;;;;5067152;28;20024;-68
2021/08/15 03:18:59;;;;;;;7.80;3.15;;;22.90;39.20;;;;;;5071511;28;20039;-71
2021/08/15 03:21:29;;;;;;;2.00;1.52;;;23.20;40.40;;;;;;5072977;28;20044;-68
2021/08/15 03:23:57;;;;;;;6.40;4.18;;;23.10;32.90;;;;;;5075578;28;20024;-65
2021/08/15 03:26:24;;;;;;;4.35;1.40;;;23.00;42.20;;;;;;5066625;28;20124;-69
2021/08/15 03:28:52;;;;;;;3.60;2.03;;;22.70;36.40;;;;;;5071364;28;20028;-73
2021/08/15 03:31:19;;;;;;;4.60;3.47;;;23.00;36.40;;;;;;5072898;28;20055;-67
2021/08/15 03:33:46;;;;;;;6.65;4.13;;;23.30;45.50;;;;;;5071756;28;20117;-71
2021/08/15 03:36:14;;;;;;;3.88;1.27;;;23.40;45.60;;;;;;5066613;28;20021;-66
2021/08/15 03:38:41;;;;;;;9.40;5.65;;;23.40;31.70;;;;;;5071604;28;20099;-69
2021/08/15 03:41:08;;;;;;;4.68;3.38;;;23.10;46.50;;;;;;5069076;28;20375;-76
2021/08/15 03:43:36;;;;;;;4.97;4.47;;;23.00;46.50;;;;;;5073432;28;20025;-70
2021/08/15 03:46:03;;;;;;;5.50;4.75;;;23.00;45.80;;;;;;5068313;28;20025;-70
2021/08/15 03:48:31;;;;;;;5.13;3.58;;;22.90;47.20;;;;;;5072300;28;20051;-70
2021/08/15 03:50:58;;;;;;;5.75;3.95;;;22.90;45.80;;;;;;5072840;28;20077;-71
2021/08/15 03:53:25;;;;;;;3.70;3.40;;;23.00;48.10;;;;;;5073346;28;20036;-71
2021/08/15 03:55:53;;;;;;;4.38;3.55;;;23.00;46.00;;;;;;5067226;28;20021;-72
2021/08/15 03:58:21;;;;;;;4.30;3.90;;;23.20;47.50;;;;;;5071118;28;20371;-71
2021/08/15 04:00:48;;;;;;;4.25;3.50;;;23.30;49.20;;;;;;5071857;28;20027;-69
2021/08/15 04:03:16;;;;;;;2.72;2.50;;;23.20;49.60;;;;;;5070525;28;20052;-67
2021/08/15 04:05:43;;;;;;;4.57;3.60;;;23.40;43.60;;;;;;5067585;28;20121;-69
2021/08/15 04:08:11;;;;;;;9.27;3.88;;;23.50;47.40;;;;;;5072186;28;20033;-67
2021/08/15 04:10:39;;;;;;;2.83;2.33;;;23.40;47.80;;;;;;5071992;28;20486;-69
2021/08/15 04:13:06;;;;;;;2.90;2.30;;;23.50;43.80;;;;;;5071879;28;20043;-68
2021/08/15 04:15:34;;;;;;;6.30;3.35;;;23.70;46.60;;;;;;5066952;28;20426;-70
2021/08/15 04:18:01;;;;;;;5.15;2.40;;;23.70;44.40;;;;;;5070048;28;20051;-68
2021/08/15 04:20:29;;;;;;;3.97;2.70;;;23.80;46.50;;;;;;5070052;28;20020;-68
2021/08/15 04:22:56;;;;;;;2.70;1.98;;;23.70;44.10;;;;;;5073513;28;20028;-70
2021/08/15 04:25:23;;;;;;;3.45;2.50;;;23.90;44.90;;;;;;5067329;28;20127;-55
2021/08/15 04:27:51;;;;;;;4.65;2.13;;;23.80;43.40;;;;;;5072416;28;20032;-60
2021/08/15 04:30:18;;;;;;;5.35;2.47;;;23.70;42.00;;;;;;5073375;28;20135;-60
2021/08/15 04:32:45;;;;;;;2.75;2.03;;;23.70;41.50;;;;;;5075076;28;20501;-59
2021/08/15 04:35:13;;;;;;;2.40;1.98;;;23.70;42.00;;;;;;5069098;28;20506;-61
2021/08/15 04:37:40;;;;;;;3.38;1.77;;;23.60;42.70;;;;;;5073810;28;20100;-60
2021/08/15 04:40:08;;;;;;;4.60;1.63;;;23.60;38.80;;;;;;5069730;28;20078;-59
2021/08/15 04:42:36;;;;;;;6.13;1.77;;;23.60;42.40;;;;;;5074925;28;20021;-71
2021/08/15 04:45:04;;;;;;;2.45;1.70;;;23.40;40.50;;;;;;5067688;28;20048;-73
2021/08/15 04:47:44;;;;;;;6.22;1.65;;;23.20;44.70;;;;;;5075481;28;20016;-68
2021/08/15 04:50:11;;;;;;;6.97;1.77;;;23.10;46.40;;;;;;5079965;28;20133;-74
2021/08/15 04:52:38;;;;;;;3.53;1.55;;;23.00;48.20;;;;;;5095265;28;20051;-71
2021/08/15 04:55:06;;;;;;;4.38;1.73;;;23.20;46.80;;;;;;5077167;28;20048;-73
2021/08/15 04:57:34;;;;;;;2.05;1.75;;;23.30;47.40;;;;;;5073547;28;20031;-69
2021/08/15 05:00:02;;;;;;;12.55;2.47;;;23.30;47.70;;;;;;5072491;28;20466;-70
2021/08/15 05:02:29;;;;;;;2.65;1.55;;;23.50;47.00;;;;;;5073225;28;20055;-70
2021/08/15 05:04:57;;;;;;;3.28;1.60;;;23.50;46.00;;;;;;5074059;28;20335;-74
2021/08/15 05:07:30;;;;;;;7.95;1.50;;;23.60;44.60;;;;;;5073806;28;20023;-69
2021/08/15 05:09:58;;;;;;;1.92;1.58;;;23.70;43.90;;;;;;5073505;28;20018;-70
2021/08/15 05:12:44;;;;;;;2.88;1.25;;;23.90;46.70;;;;;;5076420;28;20033;-68
2021/08/15 05:15:27;;;;;;;5.20;1.20;;;24.10;43.10;;;;;;5074439;28;20043;-71
2021/08/15 05:17:58;;;;;;;2.05;1.50;;;24.20;45.60;;;;;;5071775;28;20032;-71
2021/08/15 05:20:29;;;;;;;6.07;1.50;;;24.30;46.50;;;;;;5073904;28;20051;-70
2021/08/15 05:23:17;;;;;;;4.07;1.30;;;24.30;45.90;;;;;;5072966;28;20074;-73
2021/08/15 05:25:46;;;;;;;2.20;1.40;;;24.40;46.80;;;;;;5075149;28;20020;-71
2021/08/15 05:28:14;;;;;;;3.67;1.10;;;24.50;46.60;;;;;;5071263;28;20025;-65
2021/08/15 05:30:41;;;;;;;1.50;1.40;;;24.40;36.80;;;;;;5070813;28;20110;-61
2021/08/15 05:33:09;;;;;;;2.67;1.40;;;24.20;44.50;;;;;;5067160;28;20111;-56
2021/08/15 05:35:36;;;;;;;3.03;1.52;;;24.30;37.60;;;;;;5070362;28;20025;-66
2021/08/15 05:38:04;;;;;;;3.28;1.25;;;24.00;46.00;;;;;;5070040;28;20589;-70
2021/08/15 05:40:31;;;;;;;4.68;1.30;;;23.80;44.40;;;;;;5070499;28;20021;-67
2021/08/15 05:42:58;;;;;;;1.48;1.30;;;23.70;45.90;;;;;;5070340;28;20020;-68
2021/08/15 05:45:26;;;;;;;5.47;1.15;;;23.60;48.10;;;;;;5070429;28;20027;-68
2021/08/15 05:47:54;;;;;;;4.03;2.00;;;23.70;44.90;;;;;;5070386;28;20021;-68
2021/08/15 05:50:21;;;;;;;1.75;1.35;;;23.80;47.00;;;;;;5070590;28;20036;-67
2021/08/15 05:52:49;;;;;;;1.88;1.00;;;23.70;46.70;;;;;;5070180;28;20558;-67
2021/08/15 05:55:16;;;;;;;1.58;1.23;;;23.80;47.00;;;;;;5070519;28;20040;-67
2021/08/15 05:57:43;;;;;;;1.85;1.20;;;23.80;48.00;;;;;;5069637;28;20100;-65
2021/08/15 06:00:11;;;;;;;1.42;0.90;;;23.90;46.80;;;;;;5068693;28;20052;-70
2021/08/15 06:02:38;;;;;;;3.97;1.25;;;23.90;47.40;;;;;;5070162;28;20021;-67
2021/08/15 06:05:06;;;;;;;1.45;1.00;;;23.90;47.50;;;;;;5070068;28;20073;-65
2021/08/15 06:07:34;;;;;;;3.08;0.90;;;23.90;47.60;;;;;;5070316;28;20032;-70
2021/08/15 06:10:01;;;;;;;2.47;1.10;;;24.00;45.50;;;;;;5069944;28;20082;-65
2021/08/15 06:12:29;;;;;;;1.92;1.23;;;23.80;46.50;;;;;;5070106;28;20039;-68
2021/08/15 06:14:56;;;;;;;1.65;1.10;;;23.80;48.00;;;;;;5068281;28;20032;-69
2021/08/15 06:17:23;;;;;;;1.45;1.00;;;23.80;47.60;;;;;;5069719;28;20504;-69
2021/08/15 06:19:53;;;;;;;8.57;1.30;;;23.70;46.80;;;;;;5069591;28;20115;-69
2021/08/15 06:22:20;;;;;;;4.40;1.20;;;23.70;47.80;;;;;;5070576;28;20079;-67
2021/08/15 06:24:48;;;;;;;1.52;1.00;;;23.70;48.30;;;;;;5072792;28;20036;-69
2021/08/15 06:27:15;;;;;;;2.00;1.10;;;23.70;48.20;;;;;;5070054;28;20105;-72
2021/08/15 06:29:43;;;;;;;1.15;0.80;;;23.70;47.70;;;;;;5069521;28;20084;-66
2021/08/15 06:32:10;;;;;;;1.70;1.00;;;23.60;48.20;;;;;;5069488;28;20087;-64
2021/08/15 06:34:38;;;;;;;1.10;1.00;;;23.50;48.30;;;;;;5069604;28;20031;-68
2021/08/15 06:37:06;;;;;;;2.10;1.33;;;23.40;48.20;;;;;;5069801;28;20028;-67
2021/08/15 06:39:33;;;;;;;2.30;1.27;;;23.20;48.10;;;;;;5069289;28;20373;-65
2021/08/15 06:42:01;;;;;;;1.73;0.88;;;23.00;48.60;;;;;;5069521;28;20089;-70
2021/08/15 06:44:28;;;;;;;2.17;1.20;;;22.80;49.10;;;;;;5069393;28;20078;-64
2021/08/15 06:46:56;;;;;;;1.02;0.90;;;22.50;50.10;;;;;;5068285;28;20056;-68
2021/08/15 06:49:23;;;;;;;0.90;0.90;;;22.30;47.00;;;;;;5069354;28;20036;-66
2021/08/15 06:51:51;;;;;;;1.40;0.90;;;22.10;51.00;;;;;;5069821;28;20364;-67
2021/08/15 06:54:18;;;;;;;1.27;1.00;;;21.90;51.60;;;;;;5070556;28;20028;-67
2021/08/15 06:56:46;;;;;;;1.30;0.88;;;21.70;51.60;;;;;;5067903;28;20036;-66
2021/08/15 06:59:17;;;;;;;2.58;1.35;;;21.60;49.00;;;;;;5069433;28;20116;-66
2021/08/15 07:01:45;;;;;;;3.00;1.02;;;21.40;50.40;;;;;;5069618;28;20103;-66
2021/08/15 07:04:12;;;;;;;0.85;0.75;;;21.20;51.70;;;;;;5069376;28;20386;-62
2021/08/15 07:06:40;;;;;;;2.42;0.93;;;21.20;50.10;;;;;;5069255;28;20017;-67
2021/08/15 07:09:08;;;;;;;1.38;0.90;;;21.00;52.30;;;;;;5068605;28;20024;-69
2021/08/15 07:11:35;;;;;;;0.80;0.77;;;20.90;54.10;;;;;;5068786;28;20033;-66
2021/08/15 07:14:03;;;;;;;1.58;0.98;;;20.70;54.00;;;;;;5068895;28;20036;-65
2021/08/15 07:16:31;;;;;;;1.05;0.90;;;20.60;54.50;;;;;;5062724;28;20563;-65
2021/08/15 07:18:59;;;;;;;3.20;1.10;;;20.60;55.00;;;;;;5064439;28;20475;-63
2021/08/15 07:21:29;;;;;;;2.25;1.30;;;20.50;53.10;;;;;;5066086;28;20032;-66
2021/08/15 07:23:57;;;;;;;2.08;1.40;;;20.50;55.10;;;;;;5067034;28;20025;-69
2021/08/15 07:26:25;;;;;;;2.90;1.60;;;20.40;54.20;;;;;;5066572;28;20652;-66
2021/08/15 07:28:53;;;;;;;3.03;1.38;;;20.40;53.70;;;;;;5062839;28;20170;-65
2021/08/15 07:31:21;;;;;;;5.25;1.77;;;20.30;50.10;;;;;;5066477;28;20441;-63
2021/08/15 07:33:49;;;;;;;2.05;1.13;;;20.30;53.00;;;;;;5066030;28;20071;-70
2021/08/15 07:36:17;;;;;;;1.92;1.27;;;20.20;53.70;;;;;;5064781;28;20021;-71
2021/08/15 07:38:46;;;;;;;1.50;1.40;;;20.10;53.60;;;;;;5065153;28;20462;-69
2021/08/15 07:41:32;;;;;;;2.03;1.45;;;20.00;52.70;;;;;;5068335;28;20024;-71
2021/08/15 07:44:09;;;;;;;0.88;0.75;;;20.00;49.90;;;;;;5070276;28;20013;-74
2021/08/15 07:46:37;;;;;;;1.73;1.30;;;19.90;54.80;;;;;;5066059;28;20071;-76
2021/08/15 07:49:10;;;;;;;1.65;1.13;;;19.90;55.20;;;;;;5063412;28;20146;-64
2021/08/15 07:51:38;;;;;;;2.75;1.50;;;19.80;55.70;;;;;;5065588;28;20055;-61
2021/08/15 07:54:07;;;;;;;3.28;1.00;;;19.70;55.50;;;;;;5069184;28;20048;-63
2021/08/15 07:56:34;;;;;;;5.40;1.45;;;19.70;55.70;;;;;;5063955;28;20025;-70
2021/08/15 07:59:05;;;;;;;3.83;3.22;;;19.60;55.90;;;;;;5060876;28;20029;-66
2021/08/15 08:01:33;;;;;;;6.43;1.63;;;19.50;51.30;;;;;;5066799;28;20032;-67
2021/08/15 08:04:04;;;;;;;1.33;1.20;;;19.60;54.00;;;;;;5067041;28;20027;-72
2021/08/15 08:06:38;;;;;;;2.67;1.92;;;19.50;55.90;;;;;;5067056;28;20032;-65
2021/08/15 08:09:08;;;;;;;2.60;1.98;;;19.40;54.60;;;;;;5062310;28;20119;-66
2021/08/15 08:11:39;;;;;;;1.67;1.20;;;19.40;55.20;;;;;;5069897;28;20430;-60
2021/08/15 08:14:16;;;;;;;2.47;1.23;;;19.30;55.60;;;;;;5068083;28;20115;-65
2021/08/15 08:16:44;;;;;;;3.35;1.70;;;19.30;55.60;;;;;;5063605;28;20048;-72
2021/08/15 08:19:12;;;;;;;2.53;2.08;;;19.30;53.30;;;;;;5062906;28;20033;-64
2021/08/15 08:21:43;;;;;;;4.10;1.90;;;19.20;53.90;;;;;;5066680;28;20983;-65
2021/08/15 08:24:13;;;;;;;1.88;1.38;;;19.20;53.70;;;;;;5067092;28;20034;-63
2021/08/15 08:26:42;;;;;;;1.70;1.55;;;19.20;54.30;;;;;;5067613;28;20024;-63
2021/08/15 08:29:09;;;;;;;1.70;1.55;;;19.20;53.70;;;;;;5061585;28;20509;-70
2021/08/15 08:31:37;;;;;;;4.47;2.17;;;19.10;55.20;;;;;;5065604;28;20035;-66
2021/08/15 08:34:05;;;;;;;4.65;1.80;;;19.10;54.20;;;;;;5066867;28;20502;-67
2021/08/15 08:36:34;;;;;;;5.32;1.92;;;19.00;52.20;;;;;;5066253;28;20028;-67
2021/08/15 08:39:46;;;;;;;2.58;1.85;;;19.00;53.80;;;;;;5062855;28;20113;-71
2021/08/15 08:42:19;;;;;;;2.08;1.50;;;18.90;53.10;;;;;;5065134;28;20029;-64
2021/08/15 08:45:50;;;;;;;1.80;1.27;;;18.90;53.40;;;;;;5068933;28;20031;-69
2021/08/15 08:49:07;;;;;;;2.13;1.60;;;18.90;53.30;;;;;;4985315;28;20033;-63
2021/08/15 08:51:56;;;;;;;3.00;1.85;;;18.80;53.70;;;;;;5065393;28;20106;-61
2021/08/15 08:54:26;;;;;;;2.78;2.20;;;18.80;53.80;;;;;;5067095;28;20037;-68
2021/08/15 08:56:53;;;;;;;1.70;1.55;;;18.80;54.00;;;;;;5067170;28;20031;-66
2021/08/15 08:59:21;;;;;;;3.28;2.30;;;18.80;55.30;;;;;;5065935;28;20024;-71
2021/08/15 09:01:49;;;;;;;2.88;2.10;;;18.70;54.40;;;;;;5064262;28;20058;-68
2021/08/15 09:05:02;;;;;;;4.57;3.22;;;18.70;53.90;;;;;;5066222;28;20024;-64
2021/08/15 09:08:14;;;;;;;2.58;1.70;;;18.70;52.40;;;;;;5062880;28;20526;-67
2021/08/15 09:10:43;;;;;;;3.05;2.33;;;18.60;54.10;;;;;;5002871;28;20037;-73
2021/08/15 09:13:34;;;;;;;2.97;2.00;;;18.60;55.30;;;;;;5004261;28;20139;-62
2021/08/15 09:16:02;;;;;;;3.05;1.80;;;18.50;54.20;;;;;;5005811;28;20080;-64
2021/08/15 09:18:37;;;;;;;5.38;2.15;;;18.50;56.30;;;;;;5002017;28;20087;-69
2021/08/15 09:21:15;;;;;;;3.53;2.25;;;18.50;55.50;;;;;;5036189;28;20047;-70
2021/08/15 09:23:43;;;;;;;3.60;1.98;;;18.50;54.60;;;;;;5071118;28;20031;-63
2021/08/15 09:26:19;;;;;;;4.18;2.08;;;18.50;55.60;;;;;;5070612;28;20082;-69
2021/08/15 09:28:51;;;;;;;2.72;2.08;;;18.50;55.90;;;;;;5062796;28;20028;-68
2021/08/15 09:31:31;;;;;;;;;;;18.50;55.10;;;;;;5069730;28;20115;-67
2021/08/15 09:34:00;;;;;;;2.35;1.95;;;18.50;52.10;;;;;;5067639;28;19934;-65
2021/08/15 09:36:32;;;;;;;5.28;2.42;;;18.40;52.60;;;;;;5068368;28;20111;-69
2021/08/15 09:39:04;;;;;;;3.47;2.20;;;18.40;51.50;;;;;;5061760;28;20029;-67
2021/08/15 09:41:49;;;;;;;2.55;1.70;;;18.40;55.20;;;;;;5068928;28;20297;-68
2021/08/15 09:44:28;;;;;;;3.40;2.30;;;18.40;54.80;;;;;;5066631;28;20550;-62
2021/08/15 09:47:05;;;;;;;4.28;2.47;;;18.40;53.90;;;;;;5066972;28;20043;-65
2021/08/15 09:49:35;;;;;;;3.28;2.13;;;18.40;54.50;;;;;;5061673;28;20119;-63
2021/08/15 09:52:04;;;;;;;3.15;2.55;;;18.40;56.10;;;;;;5066695;28;20036;-68
2021/08/15 09:54:33;;;;;;;5.30;2.55;;;18.30;55.30;;;;;;5067058;28;20032;-68
2021/08/15 09:57:06;;;;;;;2.88;2.47;;;18.30;54.70;;;;;;5067430;28;20032;-73
2021/08/15 09:59:36;;;;;;;3.15;2.10;;;18.30;54.70;;;;;;5063956;28;20390;-67
2021/08/15 10:02:08;;;;;;;2.88;2.00;;;18.30;56.30;;;;;;5069940;28;21414;-69
2021/08/15 10:04:35;;;;;;;;;;;18.20;55.90;;;;;;5068387;28;20040;-65
2021/08/15 10:07:07;;;;;;;2.65;2.00;;;18.20;54.80;;;;;;5069075;28;19909;-70
2021/08/15 10:13:28;;;;;;;3.33;2.25;;;18.10;56.70;;;;;;5010466;28;20169;-64
2021/08/15 10:16:35;;;;;;;3.13;2.15;;;18.10;56.70;;;;;;5009101;28;20043;-67
2021/08/15 10:19:08;;;;;;;2.55;2.22;;;18.10;56.70;;;;;;5062670;28;20020;-65
2021/08/15 10:21:45;;;;;;;2.72;2.13;;;18.10;56.50;;;;;;5069482;28;20102;-65
2021/08/15 10:24:14;;;;;;;6.13;2.53;;;18.10;57.00;;;;;;5067389;28;20027;-69
2021/08/15 10:26:49;;;;;;;3.35;2.58;;;18.10;57.20;;;;;;5068658;28;20154;-68
2021/08/15 10:29:33;;;;;;;3.35;2.53;;;18.10;55.90;;;;;;5062850;28;20039;-64
2021/08/15 10:32:26;;;;;;;4.15;2.80;;;18.00;56.90;;;;;;5069101;28;20023;-70
2021/08/15 10:35:35;;;;;;;;;;;17.90;55.00;;;;;;4967788;28;20042;-64
2021/08/15 10:38:49;;;;;;;2.70;2.20;;;17.90;56.80;;;;;;5062566;28;20437;-70
2021/08/15 10:41:56;;;;;;;2.70;2.17;;;17.90;57.40;;;;;;5023450;28;20033;-69
2021/08/15 10:45:01;;;;;;;2.58;1.83;;;17.90;56.90;;;;;;5070640;28;20020;-73
2021/08/15 10:47:29;;;;;;;2.63;2.17;;;17.90;58.10;;;;;;5068645;28;20514;-73
2021/08/15 10:50:11;;;;;;;3.15;2.58;;;17.80;57.10;;;;;;5065860;28;20059;-72
2021/08/15 10:52:45;;;;;;;4.93;2.50;;;17.80;57.50;;;;;;5069700;28;20032;-74
2021/08/15 10:55:21;;;;;;;2.75;2.33;;;17.80;57.30;;;;;;5068682;28;20039;-67
2021/08/15 10:57:57;;;;;;;3.03;2.22;;;17.80;58.10;;;;;;5063715;28;20052;-70
2021/08/15 11:00:31;;;;;;;3.00;2.35;;;17.70;57.80;;;;;;5067489;28;20025;-67
2021/08/15 11:03:00;;;;;;;2.60;1.88;;;17.80;58.10;;;;;;5067849;28;20052;-72
2021/08/15 11:05:38;;;;;;;3.03;2.58;;;17.70;57.90;;;;;;5067867;28;20024;-59
2021/08/15 11:08:35;;;;;;;3.05;2.30;;;17.70;57.70;;;;;;5059185;28;20079;-65
2021/08/15 11:11:09;;;;;;;3.17;1.88;;;17.70;57.80;;;;;;5065058;28;20497;-63
2021/08/15 11:14:15;;;;;;;3.30;2.20;;;17.70;58.20;;;;;;5067431;28;20067;-65
2021/08/15 11:16:50;;;;;;;3.80;2.38;;;17.70;57.70;;;;;;5065530;28;20130;-65
2021/08/15 11:19:17;;;;;;;2.80;2.13;;;17.60;57.90;;;;;;5061202;28;20398;-62
2021/08/15 11:22:06;;;;;;;2.92;2.50;;;17.60;57.10;;;;;;5066354;28;20111;-61
2021/08/15 11:24:46;;;;;;;2.67;2.40;;;17.60;57.50;;;;;;5063464;28;20637;-66
2021/08/15 11:27:15;;;;;;;3.08;2.17;;;17.60;57.80;;;;;;5063343;28;20036;-65
2021/08/15 11:29:45;;;;;;;2.53;2.10;;;17.60;57.80;;;;;;5062494;28;20055;-72
2021/08/15 11:32:15;;;;;;;3.28;2.60;;;17.60;57.40;;;;;;5066661;28;20068;-70
2021/08/15 11:34:54;;;;;;;2.67;2.40;;;17.60;58.20;;;;;;5066127;28;20099;-70
2021/08/15 11:37:42;;;;;;;3.88;2.22;;;17.60;57.60;;;;;;5066866;28;20025;-69
2021/08/15 11:40:23;;;;;;;3.50;2.63;;;17.50;57.50;;;;;;5063148;28;20131;-66
2021/08/15 11:42:59;;;;;;;6.72;2.67;;;17.50;57.80;;;;;;5066459;28;20035;-67
2021/08/15 11:45:33;;;;;;;2.53;2.28;;;17.50;57.90;;;;;;5066894;28;20478;-67
2021/08/15 11:48:11;;;;;;;2.20;1.92;;;17.50;57.50;;;;;;5062680;28;20040;-68
2021/08/15 11:50:51;;;;;;;3.85;2.53;;;17.50;57.50;;;;;;5066559;28;20106;-65
2021/08/15 11:53:26;;;;;;;2.85;2.55;;;17.50;57.70;;;;;;5063448;28;20044;-71
2021/08/15 11:55:56;;;;;;;2.90;2.10;;;17.50;57.50;;;;;;5063758;28;20169;-66
2021/08/15 11:58:23;;;;;;;2.67;2.47;;;17.40;57.70;;;;;;5060278;28;20032;-65
2021/08/15 12:01:10;;;;;;;3.20;2.33;;;17.40;58.10;;;;;;5066885;28;20040;-61
2021/08/15 12:03:37;;;;;;;2.75;2.20;;;17.40;57.80;;;;;;5066871;28;20044;-69
2021/08/15 12:06:07;;;;;;;3.75;2.25;;;17.40;58.10;;;;;;5064727;28;20048;-67
2021/08/15 12:08:39;;;;;;;3.70;2.63;;;17.40;58.20;;;;;;5062227;28;20039;-68
2021/08/15 12:11:31;;;;;;;4.25;2.42;;;17.30;58.00;;;;;;5068155;28;20024;-63
2021/08/15 12:14:12;;;;;;;4.18;2.55;;;17.30;58.10;;;;;;5063454;28;20067;-71
2021/08/15 12:16:54;;;;;;;3.15;2.20;;;17.30;58.10;;;;;;5068717;28;20029;-71
2021/08/15 12:19:23;;;;;;;3.60;2.35;;;17.30;58.10;;;;;;5056998;28;20067;-74
2021/08/15 12:21:51;;;;;;;4.05;2.42;;;17.20;58.40;;;;;;5056638;28;20117;-64
2021/08/15 12:24:28;;;;;;;2.90;2.40;;;17.20;58.30;;;;;;5062152;28;20068;-70
2021/08/15 12:27:10;;;;;;;2.97;2.13;;;17.20;57.90;;;;;;5066622;28;20024;-66
2021/08/15 12:29:40;;;;;;;2.33;2.00;;;17.10;58.40;;;;;;5060201;28;20040;-68
2021/08/15 12:32:22;;;;;;;3.38;2.40;;;17.10;58.70;;;;;;5061702;28;20028;-68
2021/08/15 12:34:56;;;;;;;5.25;2.50;;;17.10;58.60;;;;;;5064242;28;20425;-71
2021/08/15 12:37:37;;;;;;;3.30;1.90;;;17.00;58.50;;;;;;5065918;28;20757;-70
2021/08/15 12:40:09;;;;;;;2.70;1.98;;;17.00;58.70;;;;;;5062267;28;20449;-69
2021/08/15 12:42:38;;;;;;;;;;;17.00;58.60;;;;;;5066005;28;20048;-69
2021/08/15 12:45:12;;;;;;;6.10;2.30;;;17.00;58.80;;;;;;5065848;28;19904;-70
2021/08/15 12:47:41;;;;;;;3.85;2.17;;;17.00;59.10;;;;;;5061410;28;20490;-63
2021/08/15 12:50:24;;;;;;;3.28;2.22;;;16.90;58.90;;;;;;5065942;28;20071;-70
2021/08/15 12:53:01;;;;;;;5.53;2.28;;;16.90;59.10;;;;;;5071892;28;21285;-66
2021/08/15 12:55:36;;;;;;;2.92;2.20;;;16.90;59.10;;;;;;5071401;28;20020;-70
2021/08/15 12:58:14;;;;;;;2.97;2.42;;;16.90;59.30;;;;;;5071628;28;20026;-62
2021/08/15 13:00:47;;;;;;;6.05;2.58;;;16.90;59.30;;;;;;5071738;28;20025;-69
2021/08/15 13:03:18;;;;;;;3.53;1.98;;;16.80;59.30;;;;;;5071609;28;20114;-70
2021/08/15 13:05:48;;;;;;;2.22;1.85;;;16.80;59.50;;;;;;5075664;28;20520;-71
2021/08/15 13:08:16;;;;;;;3.42;2.13;;;16.80;59.40;;;;;;5101719;28;20055;-76
2021/08/15 13:10:44;;;;;;;3.20;2.17;;;16.80;59.30;;;;;;5104628;28;20368;-72
2021/08/15 13:13:12;;;;;;;2.63;2.10;;;16.80;59.40;;;;;;5107914;28;20066;-72
2021/08/15 13:15:43;;;;;;;3.25;2.10;;;16.80;59.50;;;;;;5110272;28;20041;-72